METAR Data
IDs: Format: Raw Decoded Include TAF

Data at: 2057 UTC 18 Sep 2018

K0F2 182035Z AUTO 21006KT 10SM SCT070 33/18 A2993 RMK AO2 T03300181
K0F2 182015Z AUTO 18010G14KT 170V230 10SM SCT060 BKN080 34/18 A2994 RMK AO2 T03390183
K0F2 181955Z AUTO 15004G09KT 10SM CLR 33/18 A2995 RMK AO2 T03280177
K0F2 181935Z AUTO 17009KT 10SM SCT065 34/18 A2996 RMK AO2 T03380176
K0F2 181915Z AUTO 24008KT 10SM SCT065 34/18 A2997 RMK AO2 T03380180
K0F2 181835Z AUTO 19008KT 10SM SCT060 33/19 A2998 RMK AO2 T03330186
K0F2 181815Z AUTO 18008G14KT 10SM SCT055 SCT070 33/18 A3000 RMK AO2 T03320182
K0F2 181755Z AUTO 22007KT 10SM SCT055 BKN070 32/19 A3000 RMK AO2 T03240186 10334 20200
K0F2 181735Z AUTO 23010G15KT 10SM SCT055 SCT070 33/20 A3001 RMK AO2 T03300196
K0F2 181715Z AUTO 20006KT 10SM CLR 32/20 A3002 RMK AO2 T03210199
K0F2 181655Z AUTO 21007KT 10SM CLR 32/20 A3003 RMK AO2 T03160203
K0F2 181635Z AUTO 19007KT 10SM CLR 31/21 A3003 RMK AO2 T03110207
K0F2 181615Z AUTO 19007KT 10SM CLR 31/21 A3004 RMK AO2 T03060211
K0F2 181555Z AUTO 22007KT 10SM CLR 30/21 A3004 RMK AO2 T03000209
K0F2 181535Z AUTO 23008KT 10SM CLR 30/21 A3004 RMK AO2 T02960208
K0F2 181515Z AUTO 22007KT 10SM CLR 29/21 A3003 RMK AO2 T02900206
K0F2 181455Z AUTO 20005KT 10SM CLR 29/21 A3003 RMK AO2 T02850211
K0F2 181435Z AUTO 00000KT 10SM CLR 27/21 A3003 RMK AO2 T02730210
K0F2 181415Z AUTO 20003KT 10SM CLR 26/21 A3003 RMK AO2 T02600212
K0F2 181355Z AUTO 00000KT 10SM CLR 25/21 A3003 RMK AO2 T02450213
K0F2 181335Z AUTO 00000KT 10SM CLR 23/21 A3002 RMK AO2 T02310210
K0F2 181315Z AUTO 00000KT 10SM CLR 22/21 A3002 RMK AO2 T02200207
K0F2 181255Z AUTO 00000KT 10SM CLR 21/20 A3002 RMK AO2 T02090200
K0F2 181235Z AUTO 00000KT 10SM CLR 20/20 A3002 RMK AO2 T02000195
K0F2 181215Z AUTO 00000KT 10SM CLR 20/20 A3001 RMK AO2 T02020196
K0F2 181155Z AUTO 00000KT 10SM CLR 21/20 A3001 RMK AO2 T02050197 10231 20205
K0F2 181135Z AUTO 00000KT 10SM CLR 21/20 A3001 RMK AO2 T02050196
K0F2 181115Z AUTO 00000KT 10SM CLR 21/20 A3001 RMK AO2 T02050195
K0F2 181055Z AUTO 00000KT 10SM CLR 21/20 A3000 RMK AO2 T02080197
K0F2 181035Z AUTO 00000KT 10SM CLR 21/20 A3000 RMK AO2 T02100198
K0F2 181015Z AUTO 00000KT 10SM CLR 22/20 A3000 RMK AO2 T02150200
K0F2 180955Z AUTO 00000KT 10SM CLR 21/20 A2999 RMK AO2 T02100197
K0F2 180935Z AUTO 00000KT 10SM CLR 22/20 A2999 RMK AO2 T02160200
K0F2 180915Z AUTO 00000KT 10SM CLR 22/20 A2999 RMK AO2 T02220200
K0F2 180855Z AUTO 00000KT 10SM CLR 22/20 A3000 RMK AO2 T02240202
K0F2 180835Z AUTO 00000KT 10SM CLR 23/20 A2999 RMK AO2 T02270201
K0F2 180815Z AUTO 16003KT 10SM CLR 23/20 A2999 RMK AO2 T02260203
K0F2 180755Z AUTO 15004KT 10SM CLR 22/20 A3000 RMK AO2 T02230203
K0F2 180735Z AUTO 15003KT 10SM CLR 22/20 A2999 RMK AO2 T02240202
K0F2 180715Z AUTO 00000KT 10SM CLR 22/20 A3000 RMK AO2 T02220203
K0F2 180655Z AUTO 00000KT 10SM CLR 22/21 A3000 RMK AO2 T02230205
K0F2 180635Z AUTO 00000KT 10SM CLR 23/20 A3000 RMK AO2 T02250203
K0F2 180615Z AUTO 00000KT 10SM CLR 23/20 A3000 RMK AO2 T02260203
K0F2 180555Z AUTO 00000KT 10SM CLR 23/20 A3000 RMK AO2 T02310204 10311 20231 403370206
K0F2 180535Z AUTO 15003KT 10SM CLR 23/20 A3000 RMK AO2 T02330203
K0F2 180515Z AUTO 00000KT 10SM CLR 23/21 A3000 RMK AO2 T02340205
K0F2 180455Z AUTO 00000KT 10SM CLR 23/20 A3000 RMK AO2 T02340204
K0F2 180435Z AUTO 15003KT 10SM CLR 23/21 A3000 RMK AO2 T02330206
K0F2 180415Z AUTO 00000KT 10SM CLR 24/21 A3000 RMK AO2 T02360206
K0F2 180355Z AUTO 00000KT 10SM CLR 24/21 A2999 RMK AO2 T02360206
K0F2 180335Z AUTO 00000KT 10SM CLR 24/21 A2999 RMK AO2 T02390205
K0F2 180315Z AUTO 00000KT 10SM CLR 25/21 A2999 RMK AO2 T02500207
K0F2 180255Z AUTO 00000KT 10SM CLR 25/21 A2998 RMK AO2 T02510207
K0F2 180235Z AUTO 00000KT 10SM CLR 25/21 A2998 RMK AO2 T02540206
K0F2 180215Z AUTO 00000KT 10SM CLR 26/21 A2997 RMK AO2 T02590208
K0F2 180155Z AUTO 00000KT 10SM CLR 26/21 A2996 RMK AO2 T02620206
K0F2 180135Z AUTO 00000KT 10SM CLR 27/21 A2995 RMK AO2 T02690205
K0F2 180115Z AUTO 00000KT 10SM CLR 28/21 A2995 RMK AO2 T02770205
K0F2 180055Z AUTO 14004KT 10SM CLR 29/21 A2994 RMK AO2 T02860205
K0F2 180035Z AUTO 15003KT 10SM CLR 30/20 A2994 RMK AO2 T02950203
K0F2 180015Z AUTO 16005KT 10SM CLR 31/20 A2993 RMK AO2 T03050199
K0F2 172355Z AUTO 16007KT 10SM CLR 31/20 A2993 RMK AO2 T03120201 10337 20312
K0F2 172335Z AUTO 15005KT 10SM CLR 32/20 A2993 RMK AO2 T03180198
K0F2 172315Z AUTO 16005KT 10SM SCT055 32/19 A2993 RMK AO2 T03230193
K0F2 172255Z AUTO 16008KT 10SM CLR 33/19 A2993 RMK AO2 T03270193
K0F2 172235Z AUTO 17008KT 10SM SCT060 32/19 A2993 RMK AO2 T03240190
K0F2 172215Z AUTO 15005KT 10SM BKN060 33/19 A2994 RMK AO2 T03290192
K0F2 172155Z AUTO 19003KT 10SM SCT060 33/19 A2995 RMK AO2 T03300190
K0F2 172135Z AUTO 17005KT 10SM SCT060 34/19 A2995 RMK AO2 T03350192
K0F2 172115Z AUTO 16006KT 10SM CLR 33/19 A2995 RMK AO2 T03330189
K0F2 172055Z AUTO 20008G15KT 10SM SCT055 33/19 A2996 RMK AO2 T03310186
K0F2 172035Z AUTO 19004KT 10SM SCT055 32/20 A2996 RMK AO2 T03210196
K0F2 172015Z AUTO 20007KT 10SM SCT055 SCT070 33/20 A2997 RMK AO2 T03320196
K0F2 171955Z AUTO 16005KT 10SM BKN055 BKN080 32/20 A2997 RMK AO2 T03190195
K0F2 171935Z AUTO 20006KT 10SM SCT055 32/19 A2998 RMK AO2 T03210192
K0F2 171915Z AUTO 18008KT 10SM SCT055 SCT090 33/19 A2999 RMK AO2 T03270185
K0F2 171855Z AUTO 16008KT 10SM SCT055 SCT090 33/19 A3000 RMK AO2 T03260190
K0F2 171835Z AUTO 00000KT 10SM CLR 32/20 A3000 RMK AO2 T03150196
K0F2 171815Z AUTO 19004KT 10SM CLR 32/20 A3001 RMK AO2 T03170195
K0F2 171755Z AUTO 23005KT 10SM CLR 32/20 A3002 RMK AO2 T03150197 10318 20206
K0F2 171735Z AUTO 20007KT 10SM CLR 31/20 A3002 RMK AO2 T03140196
K0F2 171715Z AUTO 17006KT 10SM CLR 31/19 A3003 RMK AO2 T03100192
K0F2 171655Z AUTO 24005KT 10SM CLR 31/19 A3003 RMK AO2 T03060192
K0F2 171635Z AUTO 19006KT 10SM CLR 30/20 A3003 RMK AO2 T03040199
K0F2 171615Z AUTO 25007KT 10SM CLR 30/20 A3003 RMK AO2 T02970203
K0F2 171555Z AUTO 21006KT 10SM CLR 30/21 A3003 RMK AO2 T02950206
K0F2 171535Z AUTO 22005KT 10SM CLR 29/22 A3003 RMK AO2 T02880219
K0F2 171515Z AUTO 22005KT 10SM CLR 28/22 A3002 RMK AO2 T02810219
K0F2 171455Z AUTO 20005KT 10SM CLR 27/22 A3002 RMK AO2 T02710221
K0F2 171435Z AUTO 19004KT 10SM CLR 26/23 A3002 RMK AO2 T02610226
K0F2 171415Z AUTO 00000KT 10SM CLR 25/23 A3002 RMK AO2 T02490227
K0F2 171355Z AUTO 00000KT 10SM CLR 24/22 A3001 RMK AO2 T02390222
K0F2 171335Z AUTO 00000KT 7SM CLR 23/22 A3001 RMK AO2 T02290219
K0F2 171315Z AUTO 00000KT 7SM CLR 22/21 A3000 RMK AO2 T02210214
K0F2 171255Z AUTO 00000KT 7SM CLR 21/21 A3000 RMK AO2 T02110206
K0F2 171235Z AUTO 00000KT 7SM CLR 21/20 A2999 RMK AO2 T02070202
K0F2 171215Z AUTO 00000KT 10SM CLR 21/21 A2999 RMK AO2 T02110205
K0F2 171155Z AUTO 00000KT 7SM CLR 21/21 A2998 RMK AO2 70006 T02100205 10230 20207
K0F2 171135Z AUTO 00000KT 7SM CLR 21/21 A2998 RMK AO2 T02090205
K0F2 171115Z AUTO 00000KT 7SM CLR 21/20 A2997 RMK AO2 T02090204
K0F2 171055Z AUTO 00000KT 10SM CLR 21/21 A2997 RMK AO2 T02110205
K0F2 171035Z AUTO 00000KT 10SM CLR 21/21 A2997 RMK AO2 T02140207
K0F2 171015Z AUTO 00000KT 10SM CLR 21/21 A2997 RMK AO2 T02140208
K0F2 170955Z AUTO 00000KT 7SM CLR 21/21 A2997 RMK AO2 T02120206
K0F2 170935Z AUTO 00000KT 10SM CLR 22/21 A2997 RMK AO2 T02150207
K0F2 170915Z AUTO 00000KT 10SM CLR 22/21 A2997 RMK AO2 T02170210